Time;durP1;ratioP1;P1;durP2;ratioP2;P2;SDS_P1;SDS_P2;PMS_P1;PMS_P2;Temp;Humidity;BMP_temperature;BMP_pressure;BME280_temperature;BME280_humidity;BME280_pressure;Samples;Min_cycle;Max_cycle;Signal;HPM_P1;HPM_P2
2022/07/17 00:02:04;;;;;;;6.20;1.30;;;;;;;16.78;94.73;102697.38;4877035;29;20056;-66
2022/07/17 00:04:30;;;;;;;7.82;1.10;;;;;;;16.78;93.53;102700.03;4887660;29;20056;-66
2022/07/17 00:06:57;;;;;;;4.30;1.00;;;;;;;16.74;94.87;102705.72;4879580;29;20151;-66
2022/07/17 00:09:23;;;;;;;8.40;1.33;;;;;;;16.73;94.12;102699.59;4880858;29;20295;-67
2022/07/17 00:11:50;;;;;;;6.30;1.05;;;;;;;16.66;95.69;102700.31;4878489;29;20048;-66
2022/07/17 00:14:16;;;;;;;6.22;0.93;;;;;;;16.55;98.17;102704.78;4886884;29;20538;-68
2022/07/17 00:16:43;;;;;;;6.97;1.52;;;;;;;16.50;96.63;102688.47;4887173;29;20052;-66
2022/07/17 00:19:10;;;;;;;4.43;1.00;;;;;;;16.49;97.49;102691.28;4880973;29;20058;-66
2022/07/17 00:21:36;;;;;;;3.08;1.08;;;;;;;16.48;97.24;102690.41;4881228;29;20060;-67
2022/07/17 00:24:06;;;;;;;5.05;1.10;;;;;;;16.49;97.04;102697.41;4883636;29;20049;-67
2022/07/17 00:26:33;;;;;;;4.43;1.08;;;;;;;16.47;96.89;102704.66;4885418;29;20461;-67
2022/07/17 00:29:02;;;;;;;5.35;1.13;;;;;;;16.39;100.00;102702.69;4884879;29;20171;-67
2022/07/17 00:31:28;;;;;;;;;;;;;;;16.35;99.26;102700.47;4886502;29;20615;-66
2022/07/17 00:33:55;;;;;;;6.45;1.48;;;;;;;16.26;100.00;102694.19;4878407;29;19935;-67
2022/07/17 00:36:22;;;;;;;5.45;1.30;;;;;;;16.23;100.00;102696.25;4873427;29;20064;-66
2022/07/17 00:38:48;;;;;;;7.45;1.30;;;;;;;16.17;100.00;102702.94;4884449;29;20059;-66
2022/07/17 00:41:15;;;;;;;4.95;1.35;;;;;;;16.16;99.72;102694.16;4879006;29;20057;-65
2022/07/17 00:43:42;;;;;;;5.13;1.20;;;;;;;16.11;100.00;102687.59;4887417;29;20056;-66
2022/07/17 00:46:08;;;;;;;4.22;1.30;;;;;;;16.08;100.00;102693.19;4879134;29;20056;-66
2022/07/17 00:48:35;;;;;;;8.60;1.35;;;;;;;16.04;100.00;102697.09;4882418;29;20052;-66
2022/07/17 00:51:01;;;;;;;9.52;1.33;;;;;;;16.04;100.00;102694.44;4880999;29;20371;-66
2022/07/17 00:53:33;;;;;;;4.93;1.00;;;;;;;16.04;100.00;102694.44;4877901;29;20425;-66
2022/07/17 00:56:03;;;;;;;5.70;1.10;;;;;;;16.05;100.00;102693.47;4884766;29;20052;-67
2022/07/17 00:58:32;;;;;;;2.15;1.08;;;;;;;16.00;100.00;102694.72;4877388;29;20589;-66
2022/07/17 01:01:06;;;;;;;2.88;1.27;;;;;;;16.01;100.00;102690.25;4886648;29;20557;-66
2022/07/17 01:03:33;;;;;;;7.85;1.63;;;;;;;15.93;100.00;102695.38;4870931;29;20087;-66
2022/07/17 01:05:59;;;;;;;2.88;1.30;;;;;;;15.81;100.00;102687.56;4883983;29;20052;-66
2022/07/17 01:08:26;;;;;;;4.43;1.25;;;;;;;15.81;100.00;102684.91;4886377;29;20052;-67
2022/07/17 01:10:52;;;;;;;6.60;1.40;;;;;;;15.75;100.00;102688.09;4878629;29;20060;-67
2022/07/17 01:13:20;;;;;;;3.17;1.00;;;;;;;15.69;100.00;102678.03;4886073;29;20996;-66
2022/07/17 01:15:47;;;;;;;5.15;1.38;;;;;;;15.65;100.00;102673.16;4875269;29;20063;-67
2022/07/17 01:18:14;;;;;;;2.92;1.08;;;;;;;15.61;100.00;102681.34;4880571;29;20092;-67
2022/07/17 01:20:44;;;;;;;6.80;1.50;;;;;;;15.54;100.00;102682.88;4878804;29;20425;-68
2022/07/17 01:23:12;;;;;;;5.25;1.42;;;;;;;15.50;100.00;102678.78;4885413;29;20052;-67
2022/07/17 01:25:40;;;;;;;5.95;1.30;;;;;;;15.49;100.00;102681.59;4887002;29;20057;-66
2022/07/17 01:28:07;;;;;;;4.38;1.30;;;;;;;15.47;100.00;102676.44;4876118;29;20057;-66
2022/07/17 01:30:34;;;;;;;3.47;1.00;;;;;;;15.42;100.00;102682.09;4882145;29;20056;-66
2022/07/17 01:33:02;;;;;;;3.83;1.25;;;;;;;15.39;100.00;102685.03;4873322;29;20661;-66
2022/07/17 01:35:29;;;;;;;4.20;1.10;;;;;;;15.41;100.00;102690.19;4883593;29;20056;-66
2022/07/17 01:37:56;;;;;;;5.65;1.55;;;;;;;15.30;100.00;102688.44;4879070;29;20252;-66
2022/07/17 01:40:22;;;;;;;4.85;1.30;;;;;;;15.22;100.00;102686.47;4884494;29;20048;-66
2022/07/17 01:42:49;;;;;;;5.90;1.40;;;;;;;15.16;100.00;102692.28;4885152;29;20052;-66
2022/07/17 01:45:18;;;;;;;4.93;1.08;;;;;;;15.07;100.00;102692.22;4873759;29;20148;-66
2022/07/17 01:47:46;;;;;;;3.72;1.30;;;;;;;15.06;100.00;102695.84;4882391;29;20104;-65
2022/07/17 01:50:14;;;;;;;6.00;1.35;;;;;;;14.99;100.00;102692.88;4876704;29;20509;-66
2022/07/17 01:52:42;;;;;;;5.00;1.10;;;;;;;15.01;100.00;102705.00;4886692;29;20044;-66
2022/07/17 01:55:10;;;;;;;2.75;0.98;;;;;;;14.96;100.00;102701.06;4886637;29;20135;-66
2022/07/17 01:57:37;;;;;;;3.90;1.42;;;;;;;14.86;100.00;102694.88;4876049;29;20056;-66
2022/07/17 02:00:06;;;;;;;3.05;1.40;;;;;;;14.88;100.00;102690.28;4882433;29;20520;-65
2022/07/17 02:02:33;;;;;;;3.88;1.30;;;;;;;14.86;100.00;102685.16;4879874;29;20513;-65
2022/07/17 02:04:59;;;;;;;3.92;1.23;;;;;;;14.91;100.00;102690.03;4886074;29;20059;-66
2022/07/17 02:07:26;;;;;;;5.57;1.27;;;;;;;14.89;100.00;102690.16;4881031;29;20062;-66
2022/07/17 02:09:52;;;;;;;6.00;1.77;;;;;;;14.87;100.00;102691.28;4886945;29;20056;-66
2022/07/17 02:12:19;;;;;;;8.65;1.45;;;;;;;14.81;100.00;102700.53;4882012;29;20048;-67
2022/07/17 02:14:45;;;;;;;3.78;1.20;;;;;;;14.79;100.00;102698.03;4867707;29;20502;-66
2022/07/17 02:17:12;;;;;;;4.25;1.25;;;;;;;14.74;100.00;102689.66;4886194;29;20057;-66
2022/07/17 02:19:38;;;;;;;3.08;1.13;;;;;;;14.73;100.00;102681.88;4879584;29;20056;-67
2022/07/17 02:22:05;;;;;;;5.18;1.58;;;;;;;14.74;100.00;102679.09;4886199;29;20053;-66
2022/07/17 02:24:31;;;;;;;10.15;1.63;;;;;;;14.71;100.00;102681.97;4878122;29;20088;-67
2022/07/17 02:26:58;;;;;;;4.50;1.50;;;;;;;14.71;100.00;102691.72;4876966;29;20052;-67
2022/07/17 02:29:24;;;;;;;4.05;1.10;;;;;;;14.67;100.00;102680.56;4884992;29;20132;-66
2022/07/17 02:31:50;;;;;;;3.72;1.10;;;;;;;14.63;100.00;102685.25;4877195;29;20049;-67
2022/07/17 02:34:17;;;;;;;3.38;1.20;;;;;;;14.63;100.00;102687.91;4883340;29;20532;-66
2022/07/17 02:36:43;;;;;;;3.95;1.27;;;;;;;14.59;100.00;102685.66;4872450;29;20494;-67
2022/07/17 02:39:10;;;;;;;4.18;1.60;;;;;;;14.56;100.00;102683.22;4880564;29;20841;-67
2022/07/17 02:41:36;;;;;;;3.35;1.40;;;;;;;14.50;100.00;102686.38;4880677;29;20087;-66
2022/07/17 02:44:03;;;;;;;3.40;1.38;;;;;;;14.51;100.00;102683.63;4860489;29;20270;-67
2022/07/17 02:46:30;;;;;;;3.60;1.33;;;;;;;14.52;100.00;102682.63;4885357;29;20062;-66
2022/07/17 02:48:56;;;;;;;4.07;1.13;;;;;;;14.53;100.00;102681.69;4876595;29;20060;-66
2022/07/17 02:51:23;;;;;;;4.65;1.20;;;;;;;14.52;100.00;102698.47;4884908;29;20072;-67
2022/07/17 02:53:49;;;;;;;4.28;1.20;;;;;;;14.51;100.00;102696.81;4872778;29;20052;-67
2022/07/17 02:56:16;;;;;;;4.30;1.25;;;;;;;14.48;100.00;102697.06;4879730;29;20520;-67
2022/07/17 02:58:43;;;;;;;1.80;1.20;;;;;;;14.47;100.00;102695.41;4885083;29;20056;-65
2022/07/17 03:01:09;;;;;;;3.33;1.48;;;;;;;14.43;100.00;102697.44;4877821;29;20049;-66
2022/07/17 03:03:36;;;;;;;4.78;1.48;;;;;;;14.39;100.00;102701.31;4884459;29;20055;-65
2022/07/17 03:06:02;;;;;;;4.97;1.58;;;;;;;14.40;100.00;102707.41;4876902;29;20059;-66
2022/07/17 03:08:29;;;;;;;3.85;1.17;;;;;;;14.41;100.00;102699.38;4878049;29;20064;-65
2022/07/17 03:10:55;;;;;;;3.28;1.20;;;;;;;14.39;100.00;102701.31;4877154;29;20528;-65
2022/07/17 03:13:21;;;;;;;6.82;1.88;;;;;;;14.40;100.00;102702.97;4885519;29;20067;-66
2022/07/17 03:15:48;;;;;;;5.95;1.45;;;;;;;14.36;100.00;102712.09;4885919;29;20052;-66
2022/07/17 03:18:15;;;;;;;5.45;1.42;;;;;;;14.34;100.00;102706.13;4878551;29;20052;-66
2022/07/17 03:20:41;;;;;;;5.70;1.40;;;;;;;14.35;100.00;102709.63;4880879;29;20400;-66
2022/07/17 03:23:08;;;;;;;4.03;1.52;;;;;;;14.37;100.00;102705.03;4871927;29;20048;-66
2022/07/17 03:25:34;;;;;;;7.30;1.23;;;;;;;14.39;100.00;102703.94;4884965;29;20283;-67
2022/07/17 03:28:01;;;;;;;5.82;1.48;;;;;;;14.42;100.00;102713.41;4880589;29;20064;-66
2022/07/17 03:30:27;;;;;;;6.85;1.63;;;;;;;14.43;100.00;102713.28;4886624;29;20064;-67
2022/07/17 03:32:53;;;;;;;5.75;1.50;;;;;;;14.42;100.00;102705.50;4890550;29;20060;-67
2022/07/17 03:35:20;;;;;;;6.28;1.85;;;;;;;14.36;100.00;102698.91;4876216;29;20068;-66
2022/07/17 03:37:46;;;;;;;4.00;1.50;;;;;;;14.31;100.00;102697.59;4885762;29;20281;-66
2022/07/17 03:40:14;;;;;;;6.50;1.88;;;;;;;14.31;100.00;102692.31;4881208;29;20058;-66
2022/07/17 03:42:40;;;;;;;6.07;1.85;;;;;;;14.31;100.00;102689.69;4880347;29;20056;-65
2022/07/17 03:45:07;;;;;;;5.15;1.40;;;;;;;14.28;100.00;102680.22;4882998;29;20057;-65
2022/07/17 03:47:34;;;;;;;5.50;1.42;;;;;;;14.29;100.00;102681.91;4888310;29;20510;-65
2022/07/17 03:50:01;;;;;;;6.85;1.70;;;;;;;14.28;100.00;102692.59;4883310;29;20501;-65
2022/07/17 03:52:27;;;;;;;7.20;1.50;;;;;;;14.26;100.00;102686.59;4874850;29;20049;-67
2022/07/17 03:54:54;;;;;;;7.65;1.67;;;;;;;14.27;100.00;102697.03;4888505;29;20148;-66
2022/07/17 03:57:20;;;;;;;7.10;1.63;;;;;;;14.26;100.00;102700.63;4877933;29;20894;-67
2022/07/17 03:59:47;;;;;;;5.32;1.52;;;;;;;14.24;100.00;102692.81;4888357;29;20526;-66
2022/07/17 04:02:13;;;;;;;3.72;1.30;;;;;;;14.26;100.00;102694.50;4887269;29;20059;-66
2022/07/17 04:04:39;;;;;;;6.05;1.65;;;;;;;14.20;100.00;102694.03;4873751;29;20494;-66
2022/07/17 04:07:06;;;;;;;2.97;1.35;;;;;;;14.19;100.00;102702.94;4886505;29;20052;-67
2022/07/17 04:09:32;;;;;;;5.50;1.48;;;;;;;14.17;100.00;102707.50;4879511;29;20525;-66
2022/07/17 04:11:59;;;;;;;6.82;1.67;;;;;;;14.13;100.00;102714.00;4883320;29;20045;-66
2022/07/17 04:14:25;;;;;;;6.30;1.45;;;;;;;14.09;100.00;102720.44;4880014;29;20581;-67
2022/07/17 04:16:52;;;;;;;4.50;1.33;;;;;;;14.04;100.00;102735.84;4883516;29;20565;-67
2022/07/17 04:19:18;;;;;;;6.97;1.58;;;;;;;14.03;100.00;102744.69;4882243;29;20060;-66
2022/07/17 04:21:44;;;;;;;3.85;1.27;;;;;;;14.00;100.00;102743.16;4879317;29;20064;-67
2022/07/17 04:24:11;;;;;;;3.70;1.55;;;;;;;13.99;100.00;102748.53;4887389;29;20056;-66
2022/07/17 04:26:37;;;;;;;4.43;1.40;;;;;;;13.99;100.00;102751.19;4878768;29;20063;-66
2022/07/17 04:29:04;;;;;;;4.35;1.45;;;;;;;14.02;100.00;102749.13;4886210;29;20063;-66
2022/07/17 04:31:30;;;;;;;8.25;1.83;;;;;;;14.01;100.00;102744.84;4879107;29;20051;-66
2022/07/17 04:33:57;;;;;;;6.18;1.75;;;;;;;14.04;100.00;102743.75;4876621;29;20072;-66
2022/07/17 04:36:23;;;;;;;3.60;1.35;;;;;;;14.07;100.00;102734.75;4887421;29;20497;-66
2022/07/17 04:38:50;;;;;;;5.13;1.50;;;;;;;14.10;100.00;102737.16;4878023;29;20055;-67
2022/07/17 04:41:17;;;;;;;10.38;1.80;;;;;;;14.13;100.00;102739.53;4885172;29;20450;-66
2022/07/17 04:43:43;;;;;;;4.80;1.33;;;;;;;14.15;100.00;102740.25;4879795;29;20056;-66
2022/07/17 04:46:09;;;;;;;3.85;1.30;;;;;;;14.19;100.00;102741.66;4864136;29;20470;-66
2022/07/17 04:48:36;;;;;;;3.45;1.50;;;;;;;14.18;100.00;102737.38;4882022;29;20429;-66
2022/07/17 04:51:03;;;;;;;8.43;1.73;;;;;;;14.26;100.00;102739.38;4879362;29;20052;-66
2022/07/17 04:53:30;;;;;;;4.85;1.60;;;;;;;14.24;100.00;102723.66;4886519;29;20048;-66
2022/07/17 04:55:57;;;;;;;4.73;1.67;;;;;;;14.30;100.00;102732.91;4879452;29;20099;-67
2022/07/17 04:58:23;;;;;;;4.70;1.63;;;;;;;14.35;100.00;102733.38;4861613;29;20422;-66
2022/07/17 05:00:49;;;;;;;6.03;1.70;;;;;;;14.37;100.00;102732.28;4872967;29;20055;-66
2022/07/17 05:03:16;;;;;;;6.65;1.65;;;;;;;14.43;100.00;102737.06;4885629;29;20067;-66
2022/07/17 05:05:42;;;;;;;4.13;1.58;;;;;;;14.48;100.00;102733.19;4886604;29;20044;-66
2022/07/17 05:08:08;;;;;;;6.10;1.77;;;;;;;14.56;100.00;102736.03;4878440;29;20056;-66
2022/07/17 05:10:35;;;;;;;6.55;1.70;;;;;;;14.58;100.00;102734.16;4886738;29;20052;-66
2022/07/17 05:13:01;;;;;;;5.18;2.03;;;;;;;14.62;100.00;102730.28;4873587;29;20087;-66
2022/07/17 05:15:28;;;;;;;7.80;1.67;;;;;;;14.66;100.00;102734.34;4882175;29;20053;-66
2022/07/17 05:17:55;;;;;;;6.25;1.75;;;;;;;14.70;100.00;102732.28;4885405;29;20426;-66
2022/07/17 05:20:21;;;;;;;4.57;1.80;;;;;;;14.69;100.00;102731.47;4877970;29;20060;-66
2022/07/17 05:22:48;;;;;;;4.05;1.70;;;;;;;14.75;100.00;102730.94;4886930;29;20053;-66
2022/07/17 05:25:14;;;;;;;8.43;2.10;;;;;;;14.77;100.00;102736.94;4878551;29;20098;-66
2022/07/17 05:27:41;;;;;;;4.97;1.60;;;;;;;14.82;100.00;102736.59;4882452;29;20056;-66
2022/07/17 05:30:07;;;;;;;8.88;2.05;;;;;;;14.83;100.00;102739.06;4874471;29;20048;-65
2022/07/17 05:32:34;;;;;;;6.20;1.83;;;;;;;14.89;100.00;102744.81;4886221;29;20053;-65
2022/07/17 05:35:00;;;;;;;5.45;1.65;;;;;;;14.88;100.00;102732.56;4885561;29;20052;-67
2022/07/17 05:37:27;;;;;;;6.30;1.60;;;;;;;14.94;100.00;102738.19;4880588;29;20048;-67
2022/07/17 05:39:53;;;;;;;4.57;1.60;;;;;;;14.96;100.00;102730.97;4885885;29;20056;-66
2022/07/17 05:42:19;;;;;;;5.38;1.92;;;;;;;15.00;100.00;102719.19;4874438;29;20151;-67
2022/07/17 05:44:46;;;;;;;8.90;2.15;;;;;;;15.04;100.00;102717.13;4883379;29;20059;-67
2022/07/17 05:47:12;;;;;;;6.40;1.77;;;;;;;15.08;100.00;102720.34;4883035;29;20543;-66
2022/07/17 05:49:39;;;;;;;6.32;1.80;;;;;;;15.14;100.00;102722.47;4885382;29;20059;-66
2022/07/17 05:52:05;;;;;;;5.60;2.92;;;;;;;15.20;100.00;102729.88;4882800;29;20056;-66
2022/07/17 05:54:34;;;;;;;9.65;2.05;;;;;;;15.24;100.00;102733.91;4879097;29;20642;-66
2022/07/17 05:57:01;;;;;;;10.98;1.98;;;;;;;15.31;100.00;102727.16;4882665;29;20056;-66
2022/07/17 05:59:36;;;;;;;5.50;1.85;;;;;;;15.36;100.00;102717.00;4881246;29;20244;-66
2022/07/17 06:02:02;;;;;;;6.45;2.00;;;;;;;15.42;100.00;102732.34;4887270;29;20482;-67
2022/07/17 06:04:29;;;;;;;3.22;1.35;;;;;;;15.49;100.00;102730.03;4885229;29;20056;-66
2022/07/17 06:06:55;;;;;;;6.18;1.70;;;;;;;15.57;100.00;102743.41;4887612;29;20271;-65
2022/07/17 06:09:21;;;;;;;13.10;2.17;;;;;;;15.60;100.00;102742.31;4874269;29;20057;-65
2022/07/17 06:11:48;;;;;;;7.00;1.80;;;;;;;15.66;100.00;102738.28;4883521;29;20062;-65
2022/07/17 06:14:15;;;;;;;4.30;1.40;;;;;;;15.69;100.00;102746.81;4881049;29;20103;-67
2022/07/17 06:16:42;;;;;;;5.78;1.75;;;;;;;15.74;100.00;102749.94;4887058;29;20056;-66
2022/07/17 06:19:08;;;;;;;5.90;1.70;;;;;;;15.76;100.00;102737.41;4881096;29;20063;-66
2022/07/17 06:21:34;;;;;;;8.02;1.50;;;;;;;15.81;100.00;102737.00;4887151;29;20062;-67
2022/07/17 06:24:01;;;;;;;4.20;1.25;;;;;;;15.91;100.00;102729.09;4882525;29;20056;-67
2022/07/17 06:26:27;;;;;;;7.45;1.67;;;;;;;15.92;100.00;102728.97;4876511;29;20060;-66
2022/07/17 06:28:54;;;;;;;3.78;1.50;;;;;;;15.98;100.00;102736.34;4886868;29;20052;-66
2022/07/17 06:31:21;;;;;;;6.53;1.58;;;;;;;16.01;100.00;102737.88;4878381;29;20067;-65
2022/07/17 06:33:48;;;;;;;6.82;1.75;;;;;;;16.08;100.00;102743.50;4885005;29;20301;-66
2022/07/17 06:36:14;;;;;;;4.82;1.35;;;;;;;16.09;100.00;102726.63;4885325;29;20055;-66
2022/07/17 06:38:41;;;;;;;4.25;1.42;;;;;;;16.12;100.00;102739.59;4873113;29;20394;-66
2022/07/17 06:41:07;;;;;;;4.65;1.60;;;;;;;16.18;100.00;102741.69;4884757;29;20088;-65
2022/07/17 06:43:33;;;;;;;7.78;1.85;;;;;;;16.21;100.00;102746.72;4878169;29;20072;-66
2022/07/17 06:46:00;;;;;;;4.30;0.90;;;;;;;16.30;100.00;102743.25;4885582;29;20085;-66
2022/07/17 06:48:26;;;;;;;6.22;1.45;;;;;;;16.33;100.00;102748.28;4881250;29;20064;-67
2022/07/17 06:50:53;;;;;;;4.80;1.50;;;;;;;16.38;100.00;102753.16;4882205;29;20052;-66
2022/07/17 06:53:20;;;;;;;8.95;1.83;;;;;;;16.41;100.00;102764.31;4881718;29;20847;-66
2022/07/17 06:55:47;;;;;;;5.38;1.77;;;;;;;16.44;100.00;102759.72;4881194;29;20708;-67
2022/07/17 06:58:13;;;;;;;7.68;1.60;;;;;;;16.47;100.00;102765.56;4886093;29;20056;-66
2022/07/17 07:00:40;;;;;;;4.78;1.83;;;;;;;16.51;100.00;102774.09;4880936;29;20065;-66
2022/07/17 07:03:06;;;;;;;4.65;1.50;;;;;;;16.55;100.00;102770.19;4885744;29;20052;-66
2022/07/17 07:05:33;;;;;;;8.10;1.88;;;;;;;16.60;100.00;102766.16;4875067;29;20895;-65
2022/07/17 07:08:00;;;;;;;4.85;1.60;;;;;;;16.65;100.00;102770.19;4881165;29;20053;-66
2022/07/17 07:10:27;;;;;;;6.63;1.90;;;;;;;16.69;100.00;102755.69;4884974;29;20136;-66
2022/07/17 07:12:53;;;;;;;7.75;1.88;;;;;;;16.76;100.00;102754.16;4880203;29;20049;-67
2022/07/17 07:15:20;;;;;;;4.82;1.50;;;;;;;16.80;100.00;102759.03;4884637;29;20056;-66
2022/07/17 07:17:46;;;;;;;7.65;1.70;;;;;;;16.79;100.00;102761.81;4878915;29;20523;-66
2022/07/17 07:20:13;;;;;;;5.70;1.30;;;;;;;16.90;100.00;102768.81;4877960;29;20071;-66
2022/07/17 07:22:39;;;;;;;9.00;1.92;;;;;;;16.95;100.00;102778.00;4875197;29;20433;-67
2022/07/17 07:25:06;;;;;;;5.70;1.73;;;;;;;17.02;100.00;102770.34;4883668;29;20048;-66
2022/07/17 07:27:33;;;;;;;3.33;1.52;;;;;;;17.05;100.00;102788.59;4884551;29;20056;-66
2022/07/17 07:29:59;;;;;;;7.20;1.70;;;;;;;17.10;100.00;102783.72;4875794;29;20164;-67
2022/07/17 07:32:26;;;;;;;6.15;1.58;;;;;;;17.13;100.00;102772.84;4881047;29;20049;-66
2022/07/17 07:34:52;;;;;;;6.50;1.30;;;;;;;17.23;100.00;102777.28;4869378;29;20135;-67
2022/07/17 07:37:19;;;;;;;6.78;1.70;;;;;;;17.26;98.88;102782.31;4883334;29;20067;-67
2022/07/17 07:39:45;;;;;;;2.63;1.30;;;;;;;17.29;100.00;102777.56;4884528;29;20156;-67
2022/07/17 07:42:12;;;;;;;4.82;1.23;;;;;;;17.35;100.00;102784.94;4875854;29;20497;-66
2022/07/17 07:44:38;;;;;;;5.43;1.30;;;;;;;17.42;99.41;102779.06;4884022;29;20060;-67
2022/07/17 07:47:04;;;;;;;4.15;1.50;;;;;;;17.45;99.51;102776.97;4871737;29;20143;-67
2022/07/17 07:49:31;;;;;;;6.32;1.58;;;;;;;17.51;100.00;102772.88;4879465;29;20065;-67
2022/07/17 07:52:05;;;;;;;8.93;1.48;;;;;;;17.57;100.00;102767.81;4870689;29;20651;-67
2022/07/17 07:54:32;;;;;;;4.03;1.20;;;;;;;17.71;96.03;102774.47;4883748;29;20498;-67
2022/07/17 07:57:00;;;;;;;6.68;1.40;;;;;;;17.78;97.95;102774.75;4883791;29;20057;-67
2022/07/17 07:59:26;;;;;;;4.85;1.33;;;;;;;17.83;97.07;102772.47;4876599;29;20697;-67
2022/07/17 08:01:53;;;;;;;5.45;1.30;;;;;;;17.80;93.31;102770.13;4879999;29;20049;-67
2022/07/17 08:04:19;;;;;;;4.93;1.10;;;;;;;17.92;93.20;102768.16;4870021;29;20052;-67
2022/07/17 08:06:46;;;;;;;4.30;1.17;;;;;;;18.04;95.00;102776.75;4884551;29;20508;-67
2022/07/17 08:09:12;;;;;;;8.52;1.77;;;;;;;18.07;94.33;102769.31;4880645;29;20060;-67
2022/07/17 08:11:39;;;;;;;7.50;1.77;;;;;;;18.11;93.10;102772.50;4879506;29;20055;-67
2022/07/17 08:14:05;;;;;;;6.68;1.40;;;;;;;18.13;92.19;102774.03;4883446;29;20070;-67
2022/07/17 08:16:40;;;;;;;9.15;2.22;;;;;;;18.12;90.77;102779.50;4870500;29;20755;-67
2022/07/17 08:19:06;;;;;;;10.82;1.45;;;;;;;18.14;91.36;102780.19;4887370;29;20399;-66
2022/07/17 08:21:33;;;;;;;9.13;1.45;;;;;;;18.10;89.94;102790.25;4879493;29;20063;-66
2022/07/17 08:23:59;;;;;;;3.80;1.50;;;;;;;18.10;88.12;102790.25;4887331;29;20056;-66
2022/07/17 08:26:26;;;;;;;7.22;1.42;;;;;;;18.14;90.20;102782.84;4887713;29;20057;-66
2022/07/17 08:28:53;;;;;;;7.40;1.40;;;;;;;18.16;90.08;102780.88;4875845;29;20602;-66
2022/07/17 08:31:19;;;;;;;8.05;1.83;;;;;;;18.21;90.96;102778.59;4882074;29;20543;-66
2022/07/17 08:33:46;;;;;;;4.03;1.02;;;;;;;18.34;90.72;102784.38;4877717;29;20061;-66
2022/07/17 08:36:12;;;;;;;3.08;1.10;;;;;;;18.47;87.18;102775.22;4880968;29;20055;-66
2022/07/17 08:38:38;;;;;;;5.82;1.42;;;;;;;18.69;84.39;102772.09;4879057;29;20056;-66
2022/07/17 08:41:05;;;;;;;7.13;1.55;;;;;;;19.14;86.86;102771.16;4886976;29;20055;-67
2022/07/17 08:43:32;;;;;;;6.38;1.35;;;;;;;19.61;85.71;102764.59;4882759;29;20453;-67
2022/07/17 08:46:11;;;;;;;6.72;1.52;;;;;;;20.15;85.32;102767.00;4877549;29;20422;-66
2022/07/17 08:48:41;;;;;;;6.43;1.25;;;;;;;20.68;83.13;102767.59;4887429;29;20084;-66
2022/07/17 08:51:09;;;;;;;6.22;1.33;;;;;;;21.16;79.57;102771.25;4878575;29;20593;-66
2022/07/17 08:53:37;;;;;;;6.15;1.30;;;;;;;21.62;73.35;102765.31;4887124;29;20421;-66
2022/07/17 08:56:04;;;;;;;9.80;1.58;;;;;;;22.00;73.91;102770.84;4880870;29;20683;-67
2022/07/17 08:58:31;;;;;;;4.43;1.13;;;;;;;22.41;70.42;102765.28;4882583;29;20049;-66
2022/07/17 09:00:57;;;;;;;7.93;1.65;;;;;;;22.77;69.92;102767.31;4887160;29;20053;-67
2022/07/17 09:03:24;;;;;;;4.82;1.35;;;;;;;23.09;67.55;102759.03;4880370;29;20083;-67
2022/07/17 09:05:51;;;;;;;4.00;1.33;;;;;;;23.35;67.79;102760.41;4886780;29;20148;-67
2022/07/17 09:08:21;;;;;;;5.68;1.02;;;;;;;23.38;66.42;102761.88;4878499;29;20053;-67
2022/07/17 09:10:51;;;;;;;6.60;1.30;;;;;;;23.49;63.24;102767.63;4881396;29;20167;-67
2022/07/17 09:13:24;;;;;;;3.28;1.20;;;;;;;23.73;62.57;102757.63;4863014;29;21737;-66
2022/07/17 09:15:53;;;;;;;4.50;1.10;;;;;;;24.13;65.27;102766.16;4886803;29;20458;-66
2022/07/17 09:18:21;;;;;;;6.40;1.33;;;;;;;24.46;62.65;102763.81;4869406;29;20875;-66
2022/07/17 09:20:50;;;;;;;6.03;1.20;;;;;;;24.78;59.59;102769.69;4879014;29;20060;-67
2022/07/17 09:23:20;;;;;;;3.13;1.17;;;;;;;24.97;58.95;102762.81;4883800;29;20290;-67
2022/07/17 09:25:49;;;;;;;8.05;1.27;;;;;;;25.20;58.46;102767.91;4878974;29;20066;-67
2022/07/17 09:28:16;;;;;;;4.93;1.13;;;;;;;25.26;57.88;102769.00;4885614;29;20052;-66
2022/07/17 09:30:45;;;;;;;6.18;1.42;;;;;;;25.50;60.27;102762.34;4879427;29;20068;-67
2022/07/17 09:33:28;;;;;;;5.47;1.40;;;;;;;25.66;58.56;102763.84;4868744;29;20287;-66
2022/07/17 09:36:09;;;;;;;4.22;1.20;;;;;;;25.73;57.28;102758.50;4879930;29;20045;-66
2022/07/17 09:38:38;;;;;;;3.38;1.10;;;;;;;25.95;58.96;102760.06;4880247;29;20517;-67
2022/07/17 09:41:16;;;;;;;5.45;1.27;;;;;;;25.96;55.67;102752.81;4887036;29;20052;-67
2022/07/17 09:43:50;;;;;;;6.50;1.27;;;;;;;26.14;56.03;102747.69;4881335;29;20075;-66
2022/07/17 09:46:21;;;;;;;4.00;1.33;;;;;;;26.38;56.88;102745.44;4886031;29;20060;-68
2022/07/17 09:48:54;;;;;;;3.90;1.40;;;;;;;26.48;55.35;102753.09;4875200;29;20565;-67
2022/07/17 09:51:27;;;;;;;5.82;1.40;;;;;;;26.69;55.50;102744.84;4886335;29;20063;-67
2022/07/17 09:53:56;;;;;;;6.57;1.30;;;;;;;26.88;55.48;102742.38;4879535;29;20044;-66
2022/07/17 09:56:25;;;;;;;7.22;1.30;;;;;;;26.79;52.65;102737.19;4886672;29;20065;-67
2022/07/17 09:58:59;;;;;;;5.25;1.35;;;;;;;26.98;53.88;102738.19;4885771;29;20564;-67
2022/07/17 10:01:26;;;;;;;3.78;1.30;;;;;;;27.09;53.79;102747.50;4868709;29;20056;-66
2022/07/17 10:03:53;;;;;;;4.97;1.40;;;;;;;27.22;53.89;102746.63;4883430;29;20060;-67
2022/07/17 10:06:24;;;;;;;8.10;1.30;;;;;;;27.34;52.85;102749.53;4869291;29;20063;-67
2022/07/17 10:08:52;;;;;;;4.60;1.35;;;;;;;27.54;55.71;102750.31;4886205;29;20144;-67
2022/07/17 10:11:22;;;;;;;4.43;1.17;;;;;;;27.84;53.72;102747.03;4879108;29;20421;-68
2022/07/17 10:13:51;;;;;;;4.65;1.40;;;;;;;27.95;53.64;102757.19;4881540;29;20057;-67
2022/07/17 10:16:26;;;;;;;5.15;1.30;;;;;;;28.04;51.62;102757.75;4881024;29;20048;-68
2022/07/17 10:18:57;;;;;;;7.20;1.52;;;;;;;27.95;51.19;102754.50;4877739;29;20143;-67
2022/07/17 10:21:26;;;;;;;4.68;1.38;;;;;;;27.75;52.02;102751.84;4885701;29;20088;-68
2022/07/17 10:23:52;;;;;;;;;;;;;;;27.51;51.08;102745.31;4877743;29;20052;-67
2022/07/17 10:26:43;;;;;;;4.50;1.50;;;;;;;27.65;52.93;102747.97;4885670;29;20381;-67
2022/07/17 10:29:28;;;;;;;5.35;1.50;;;;;;;27.61;51.87;102747.56;4872304;29;20044;-67
2022/07/17 10:31:55;;;;;;;4.28;1.20;;;;;;;27.93;54.60;102755.72;4875916;29;20108;-67
2022/07/17 10:34:38;;;;;;;7.63;1.70;;;;;;;28.00;51.36;102746.56;4874732;29;20048;-66
2022/07/17 10:37:35;;;;;;;7.18;1.60;;;;;;;27.97;52.53;102738.06;4887404;29;20087;-67
2022/07/17 10:40:22;;;;;;;3.38;1.20;;;;;;;28.05;52.89;102740.53;4882328;29;20056;-67
2022/07/17 10:43:02;;;;;;;4.45;1.63;;;;;;;28.20;52.13;102748.28;4875649;29;20045;-67
2022/07/17 10:45:39;;;;;;;6.78;1.45;;;;;;;27.61;52.98;102745.69;4879457;29;20527;-67
2022/07/17 10:48:13;;;;;;;6.07;1.50;;;;;;;27.61;53.00;102740.28;4877696;29;20044;-67
2022/07/17 10:50:45;;;;;;;4.75;1.23;;;;;;;27.81;53.90;102734.84;4885840;29;20052;-66
2022/07/17 10:53:23;;;;;;;4.45;1.30;;;;;;;28.00;53.96;102735.75;4876149;29;20056;-66
2022/07/17 10:56:03;;;;;;;3.63;1.50;;;;;;;28.23;52.71;102739.78;4880463;29;20533;-67
2022/07/17 10:58:34;;;;;;;5.20;1.55;;;;;;;28.32;52.69;102740.31;4871293;29;20058;-66
2022/07/17 11:01:03;;;;;;;5.75;1.95;;;;;;;28.56;53.39;102744.94;4885074;29;20064;-66
2022/07/17 11:03:35;;;;;;;6.78;1.27;;;;;;;28.64;52.71;102748.38;4883711;29;20056;-66
2022/07/17 11:06:24;;;;;;;5.22;1.75;;;;;;;28.68;51.79;102744.22;4877712;29;20059;-66
2022/07/17 11:09:00;;;;;;;4.70;1.70;;;;;;;28.81;50.09;102751.38;4885855;29;20060;-67
2022/07/17 11:11:40;;;;;;;6.97;1.40;;;;;;;28.89;52.16;102751.91;4871695;29;20420;-66
2022/07/17 11:14:12;;;;;;;3.72;1.45;;;;;;;28.97;49.87;102743.53;4879088;29;20084;-66
2022/07/17 11:16:44;;;;;;;4.82;1.40;;;;;;;29.19;52.45;102745.81;4877156;29;20055;-66
2022/07/17 11:19:10;;;;;;;6.40;1.50;;;;;;;29.34;52.48;102740.00;4884606;29;20486;-67
2022/07/17 11:21:48;;;;;;;6.75;1.30;;;;;;;29.44;50.43;102739.47;4874570;29;20247;-67
2022/07/17 11:24:14;;;;;;;7.80;1.40;;;;;;;29.22;49.19;102733.72;4876888;29;20139;-66